Terminal Aerodrome Forecast
Issued by NWS

Home | Current Version | Previous Version | Text Only | Print | Product List | Glossary On
Versions: 1 2 3 4 5 6 7 8 9 10 11 12 13 14 15
890
FTUS46 KSGX 252010 AAA
TAFONT
TAF AMD
KONT 252010Z 2520/2624 25012KT P6SM VCSH BKN022 BKN040
      TEMPO 2520/2522 SCT022
     FM260600 VRB06KT P6SM BKN015
     FM261600 VRB06KT P6SM SCT020
     FM262200 25009KT P6SM SKC=

USA.gov is the U.S. government's official web portal to all federal, state and local government web resources and services.